Welcome to Northern Hawkes Bay. New Zealand.
PWS Header
      nz Flag



Hit Counter


W3C Valid W3C Valid logo


    Wairoa

Select any of the Stations below to visit their websites.










Historic Data from Weather Underground
Select the location of interest below. Wairoa is the default. Please have patience, this Data is slow to load in.
Northern Hawkes Bay Historical Data
Daily Summary for June 22, 2017 Units:  Metric    English   Both
« Previous Day
Next Day »
Daily Weekly Monthly Yearly Custom
  High: Low: Average:
Temperature: 14.3 °C 9.8 °C 11.8 °C
Dew Point: 14.2 °C 9.7 °C 11.5 °C
Humidity: 99% 97% 98%
Wind Speed: 19.5km/h 0.0km/h 2.9km/h
Wind Gust: 27.0km/h - -
Wind- - SSW
Pressure: 1015.1 hPa 998.9 hPa -
Precipitation: 9.7 mm    
Historical Graphs
 
 
Tabular Data for June 22, 2017
Time Temperature Dew Point Pressure Wind Wind Speed Wind Gust Humidity Rainfall Rate (Hourly) solar
00:01 10.0 °C 9.8 °C 1014.8 hPa NNW 2.6 km/h 3.5 km/h 99% 0.0 mm 9 W/m2
00:06 10.0 °C 9.8 °C 1014.8 hPa NNW 1.1 km/h 3.5 km/h 99% 0.0 mm 4 W/m2
00:11 10.0 °C 9.8 °C 1014.8 hPa Calm   2.6 km/h 99% 0.0 mm 2 W/m2
00:16 9.9 °C 9.8 °C 1014.8 hPa NW 1.1 km/h 2.6 km/h 99% 0.0 mm 1 W/m2
00:21 9.9 °C 9.8 °C 1014.8 hPa NNW 1.1 km/h 3.5 km/h 99% 0.0 mm 0 W/m2
00:26 9.9 °C 9.8 °C 1015.1 hPa North 1.1 km/h 3.5 km/h 99% 0.0 mm 0 W/m2
00:31 9.9 °C 9.8 °C 1015.1 hPa North 2.6 km/h 5.0 km/h 99% 0.0 mm 0 W/m2
00:36 9.9 °C 9.8 °C 1015.1 hPa North 1.1 km/h 5.0 km/h 99% 0.3 mm 0 W/m2
00:41 9.9 °C 9.8 °C 1014.8 hPa North 1.1 km/h 5.0 km/h 99% 0.3 mm 0 W/m2
00:46 9.9 °C 9.8 °C 1014.8 hPa Calm   3.5 km/h 99% 0.3 mm 0 W/m2
00:51 9.8 °C 9.7 °C 1014.8 hPa Calm   3.5 km/h 99% 0.3 mm 0 W/m2
00:56 9.8 °C 9.7 °C 1014.8 hPa NW 1.1 km/h 3.5 km/h 99% 0.3 mm 0 W/m2
01:01 9.8 °C 9.7 °C 1014.8 hPa Calm   3.5 km/h 99% 0.3 mm 0 W/m2
01:06 9.8 °C 9.7 °C 1014.8 hPa Calm   2.6 km/h 99% 0.3 mm 0 W/m2
01:11 9.8 °C 9.7 °C 1014.8 hPa Calm   2.6 km/h 99% 0.3 mm 0 W/m2
01:16 9.8 °C 9.7 °C 1014.4 hPa NNE 1.1 km/h 3.5 km/h 99% 0.3 mm 0 W/m2
01:21 9.8 °C 9.7 °C 1014.8 hPa NNE 1.1 km/h 3.5 km/h 99% 0.3 mm 0 W/m2
01:26 9.9 °C 9.8 °C 1014.8 hPa NE 1.1 km/h 3.5 km/h 99% 0.3 mm 0 W/m2
01:31 9.9 °C 9.8 °C 1014.4 hPa NE 1.1 km/h 3.5 km/h 99% 0.3 mm 0 W/m2
01:36 9.9 °C 9.8 °C 1014.8 hPa NNE 1.1 km/h 3.5 km/h 99% 0.0 mm 0 W/m2
01:41 9.9 °C 9.8 °C 1014.8 hPa Calm   3.5 km/h 99% 0.0 mm 0 W/m2
01:46 9.9 °C 9.8 °C 1014.4 hPa Calm   3.5 km/h 99% 0.0 mm 0 W/m2
01:51 9.9 °C 9.8 °C 1014.4 hPa North 1.1 km/h 2.6 km/h 99% 0.0 mm 0 W/m2
01:56 10.0 °C 9.8 °C 1014.4 hPa Calm   3.5 km/h 99% 0.0 mm 0 W/m2
02:13 10.0 °C 9.8 °C 1014.4 hPa North 1.1 km/h 3.5 km/h 99% 0.3 mm 0 W/m2
02:18 10.0 °C 9.8 °C 1014.1 hPa Calm   3.5 km/h 99% 0.3 mm 0 W/m2
02:23 10.0 °C 9.8 °C 1014.4 hPa North 1.1 km/h 3.5 km/h 99% 0.3 mm 0 W/m2
02:28 10.0 °C 9.8 °C 1014.1 hPa NNE 1.1 km/h 2.6 km/h 99% 0.5 mm 0 W/m2
02:33 10.0 °C 9.8 °C 1014.1 hPa NNE 2.6 km/h 5.0 km/h 99% 0.5 mm 0 W/m2
02:38 10.1 °C 9.9 °C 1014.1 hPa North 1.1 km/h 5.0 km/h 99% 0.5 mm 0 W/m2
02:43 10.2 °C 10.1 °C 1014.1 hPa NNW 2.6 km/h 8.7 km/h 99% 0.5 mm 0 W/m2
02:49 10.3 °C 10.2 °C 1013.8 hPa NNE 2.6 km/h 8.7 km/h 99% 0.5 mm 0 W/m2
02:54 10.3 °C 10.2 °C 1014.1 hPa NNW 1.1 km/h 6.1 km/h 99% 0.5 mm 0 W/m2
02:59 10.3 °C 10.2 °C 1013.8 hPa NNW 6.1 km/h 8.7 km/h 99% 0.5 mm 0 W/m2
03:04 10.6 °C 10.4 °C 1013.8 hPa NW 2.6 km/h 8.7 km/h 99% 0.3 mm 0 W/m2
03:09 10.6 °C 10.4 °C 1013.8 hPa NNE 5.0 km/h 8.7 km/h 99% 0.5 mm 0 W/m2
03:14 10.5 °C 10.3 °C 1013.8 hPa Calm   8.7 km/h 99% 1.0 mm 0 W/m2
03:19 10.5 °C 10.3 °C 1013.8 hPa NNW 2.6 km/h 6.1 km/h 99% 1.0 mm 0 W/m2
03:24 10.6 °C 10.4 °C 1013.8 hPa NW 1.1 km/h 5.0 km/h 99% 0.5 mm 0 W/m2
03:29 10.5 °C 10.3 °C 1013.8 hPa NNW 2.6 km/h 5.0 km/h 99% 1.0 mm 0 W/m2
03:34 10.5 °C 10.3 °C 1013.4 hPa NNW 2.6 km/h 5.0 km/h 99% 1.0 mm 0 W/m2
03:39 10.5 °C 10.3 °C 1013.4 hPa North 1.1 km/h 3.5 km/h 99% 1.0 mm 0 W/m2
03:44 10.4 °C 10.3 °C 1013.4 hPa NNW 1.1 km/h 3.5 km/h 99% 1.0 mm 0 W/m2
03:49 10.4 °C 10.3 °C 1013.4 hPa NNW 1.1 km/h 3.5 km/h 99% 1.3 mm 0 W/m2
03:54 10.4 °C 10.3 °C 1013.4 hPa NNW 2.6 km/h 5.0 km/h 99% 1.3 mm 0 W/m2
03:59 10.3 °C 10.2 °C 1013.4 hPa NNW 3.5 km/h 6.1 km/h 99% 1.3 mm 0 W/m2
04:04 10.3 °C 10.2 °C 1013.4 hPa NNW 1.1 km/h 6.1 km/h 99% 1.3 mm 0 W/m2
04:09 10.3 °C 10.2 °C 1013.4 hPa North 1.1 km/h 5.0 km/h 99% 1.3 mm 0 W/m2
04:14 10.3 °C 10.2 °C 1013.1 hPa North 1.1 km/h 3.5 km/h 99% 1.0 mm 0 W/m2
04:19 10.2 °C 10.1 °C 1013.1 hPa North 1.1 km/h 5.0 km/h 99% 1.0 mm 0 W/m2
04:24 10.2 °C 10.1 °C 1013.1 hPa NNW 2.6 km/h 5.0 km/h 99% 1.3 mm 0 W/m2
04:29 10.2 °C 10.1 °C 1012.8 hPa NNW 1.1 km/h 3.5 km/h 99% 1.0 mm 0 W/m2
04:34 10.2 °C 10.1 °C 1012.8 hPa Calm   3.5 km/h 99% 1.0 mm 0 W/m2
04:39 10.2 °C 10.1 °C 1012.8 hPa NW 1.1 km/h 2.6 km/h 99% 1.0 mm 0 W/m2
04:45 10.1 °C 9.9 °C 1012.8 hPa Calm   2.6 km/h 99% 1.0 mm 0 W/m2
05:04 10.2 °C 10.1 °C 1012.4 hPa Calm   3.5 km/h 99% 1.0 mm 0 W/m2
05:09 10.2 °C 10.1 °C 1012.1 hPa Calm   3.5 km/h 99% 0.5 mm 0 W/m2
05:14 10.3 °C 10.2 °C 1012.1 hPa SSW 3.5 km/h 6.1 km/h 99% 0.5 mm 0 W/m2
05:31 12.1 °C 11.7 °C 1011.7 hPa SSE 3.5 km/h 9.7 km/h 97% 0.5 mm 0 W/m2
05:36 12.4 °C 11.9 °C 1011.7 hPa SE 8.7 km/h 12.2 km/h 97% 0.5 mm 0 W/m2
05:41 12.7 °C 12.2 °C 1011.4 hPa ESE 11.1 km/h 17.2 km/h 97% 1.0 mm 0 W/m2
05:46 12.7 °C 12.2 °C 1011.4 hPa SE 6.1 km/h 17.2 km/h 97% 0.5 mm 0 W/m2
05:51 12.5 °C 12.1 °C 1011.1 hPa SSE 9.7 km/h 18.3 km/h 97% 1.0 mm 0 W/m2
05:56 12.5 °C 12.1 °C 1010.7 hPa South 5.0 km/h 18.3 km/h 97% 1.0 mm 0 W/m2
06:01 12.5 °C 12.1 °C 1010.7 hPa SSE 7.2 km/h 18.3 km/h 97% 1.3 mm 0 W/m2
06:06 12.7 °C 12.2 °C 1010.7 hPa ESE 8.7 km/h 23.3 km/h 97% 1.5 mm 0 W/m2
06:11 12.8 °C 12.3 °C 1010.4 hPa SE 12.2 km/h 23.3 km/h 97% 1.8 mm 0 W/m2
06:16 13.1 °C 12.9 °C 1010.0 hPa SE 8.7 km/h 20.9 km/h 99% 2.0 mm 0 W/m2
06:21 13.0 °C 12.8 °C 1010.0 hPa SE 8.7 km/h 24.5 km/h 99% 2.0 mm 0 W/m2
06:26 13.1 °C 12.9 °C 1010.0 hPa SSE 7.2 km/h 24.5 km/h 99% 2.0 mm 0 W/m2
06:31 13.3 °C 13.2 °C 1009.7 hPa SSE 7.2 km/h 20.9 km/h 99% 2.0 mm 0 W/m2
06:36 13.5 °C 13.3 °C 1009.7 hPa SE 9.7 km/h 20.9 km/h 99% 2.3 mm 0 W/m2
06:41 13.7 °C 13.6 °C 1009.7 hPa ESE 9.7 km/h 20.9 km/h 99% 2.0 mm 0 W/m2
06:46 13.7 °C 13.6 °C 1009.4 hPa SE 6.1 km/h 21.9 km/h 99% 2.0 mm 0 W/m2
06:51 13.7 °C 13.6 °C 1009.4 hPa ESE 6.1 km/h 21.9 km/h 99% 1.8 mm 0 W/m2
06:56 13.7 °C 13.6 °C 1009.0 hPa SE 19.5 km/h 21.9 km/h 99% 1.8 mm 0 W/m2
07:01 13.7 °C 13.6 °C 1009.0 hPa SE 11.1 km/h 21.9 km/h 99% 1.8 mm 0 W/m2
07:06 13.7 °C 13.6 °C 1008.7 hPa ESE 9.7 km/h 27.0 km/h 99% 1.5 mm 0 W/m2
07:11 13.7 °C 13.6 °C 1008.7 hPa ESE 15.8 km/h 27.0 km/h 99% 1.3 mm 0 W/m2
07:16 13.7 °C 13.6 °C 1008.4 hPa SE 9.7 km/h 23.3 km/h 99% 1.0 mm 0 W/m2
07:21 13.7 °C 13.6 °C 1008.4 hPa SE 9.7 km/h 24.5 km/h 99% 0.5 mm 0 W/m2
07:26 13.7 °C 13.6 °C 1008.0 hPa SE 8.7 km/h 24.5 km/h 99% 0.5 mm 0 W/m2
07:31 13.7 °C 13.6 °C 1008.0 hPa ESE 9.7 km/h 24.5 km/h 99% 0.5 mm 0 W/m2
07:36 13.9 °C 13.8 °C 1007.7 hPa ESE 13.4 km/h 24.5 km/h 99% 0.3 mm 0 W/m2
07:41 13.9 °C 13.8 °C 1007.7 hPa ESE 9.7 km/h 24.5 km/h 99% 0.3 mm 0 W/m2
07:46 14.0 °C 13.8 °C 1007.7 hPa East 15.8 km/h 24.5 km/h 99% 0.3 mm 0 W/m2
07:51 14.1 °C 13.9 °C 1007.3 hPa ESE 13.4 km/h 23.3 km/h 99% 0.3 mm 0 W/m2
07:56 14.3 °C 14.2 °C 1007.3 hPa ESE 6.1 km/h 21.9 km/h 99% 0.0 mm 0 W/m2
08:01 14.3 °C 14.2 °C 1007.3 hPa East 13.4 km/h 20.9 km/h 99% 0.0 mm 0 W/m2
08:06 13.9 °C 13.8 °C 1007.3 hPa ENE 11.1 km/h 19.5 km/h 99% 0.0 mm 0 W/m2
08:11 12.8 °C 12.3 °C 1007.7 hPa NE 8.7 km/h 19.5 km/h 97% 0.0 mm 0 W/m2
08:16 12.3 °C 11.8 °C 1007.3 hPa NNE 13.4 km/h 17.2 km/h 97% 0.3 mm 0 W/m2
08:21 12.1 °C 11.7 °C 1007.3 hPa NNE 14.8 km/h 19.5 km/h 97% 0.3 mm 0 W/m2
08:26 12.1 °C 11.7 °C 1007.3 hPa NNE 6.1 km/h 20.9 km/h 97% 0.3 mm 0 W/m2
08:31 12.1 °C 11.7 °C 1007.3 hPa NNE 5.0 km/h 20.9 km/h 97% 0.3 mm 0 W/m2
08:36 12.1 °C 11.7 °C 1007.3 hPa North 7.2 km/h 19.5 km/h 97% 0.3 mm 0 W/m2
08:41 12.1 °C 11.7 °C 1007.3 hPa NNW 5.0 km/h 19.5 km/h 97% 0.3 mm 0 W/m2
08:46 12.1 °C 11.7 °C 1007.3 hPa North 9.7 km/h 17.2 km/h 97% 0.3 mm 0 W/m2
08:51 12.2 °C 11.7 °C 1007.3 hPa NNE 8.7 km/h 17.2 km/h 97% 0.3 mm 0 W/m2
08:56 12.1 °C 11.7 °C 1007.3 hPa NNE 6.1 km/h 17.2 km/h 97% 0.3 mm 0 W/m2
09:01 12.1 °C 11.7 °C 1007.3 hPa NNE 9.7 km/h 14.8 km/h 97% 0.3 mm 0 W/m2
09:06 12.1 °C 11.7 °C 1007.3 hPa North 7.2 km/h 14.8 km/h 97% 0.3 mm 0 W/m2
09:11 12.1 °C 11.7 °C 1007.3 hPa North 7.2 km/h 14.8 km/h 97% 0.0 mm 0 W/m2
09:16 12.0 °C 11.6 °C 1007.3 hPa North 6.1 km/h 13.4 km/h 97% 0.0 mm 0 W/m2
09:21 12.0 °C 11.6 °C 1007.3 hPa North 9.7 km/h 13.4 km/h 97% 0.0 mm 0 W/m2
09:26 12.0 °C 11.6 °C 1007.3 hPa North 9.7 km/h 15.8 km/h 97% 0.0 mm 0 W/m2
09:31 12.0 °C 11.6 °C 1007.3 hPa North 8.7 km/h 15.8 km/h 97% 0.0 mm 0 W/m2
09:36 11.9 °C 11.6 °C 1007.3 hPa North 8.7 km/h 14.8 km/h 98% 0.0 mm 0 W/m2
09:41 11.9 °C 11.6 °C 1007.0 hPa North 9.7 km/h 14.8 km/h 98% 0.0 mm 0 W/m2
09:46 11.9 °C 11.6 °C 1007.0 hPa North 6.1 km/h 13.4 km/h 98% 0.0 mm 0 W/m2
09:51 11.9 °C 11.6 °C 1007.3 hPa North 5.0 km/h 11.1 km/h 98% 0.0 mm 0 W/m2
09:56 11.8 °C 11.5 °C 1007.0 hPa NNE 1.1 km/h 11.1 km/h 98% 0.0 mm 0 W/m2
10:01 11.7 °C 11.4 °C 1007.0 hPa NE 1.1 km/h 8.7 km/h 98% 0.0 mm 0 W/m2
10:06 11.7 °C 11.4 °C 1007.0 hPa NNE 2.6 km/h 6.1 km/h 98% 0.0 mm 0 W/m2
10:11 11.6 °C 11.3 °C 1007.3 hPa Calm   6.1 km/h 98% 0.0 mm 0 W/m2
10:16 11.6 °C 11.3 °C 1007.0 hPa NNE 3.5 km/h 6.1 km/h 98% 0.0 mm 0 W/m2
10:21 11.7 °C 11.4 °C 1007.0 hPa NNE 2.6 km/h 6.1 km/h 98% 0.0 mm 0 W/m2
10:26 11.7 °C 11.4 °C 1006.7 hPa NNE 3.5 km/h 6.1 km/h 98% 0.0 mm 0 W/m2
10:31 11.8 °C 11.5 °C 1006.7 hPa North 3.5 km/h 7.2 km/h 98% 0.0 mm 0 W/m2
10:36 11.7 °C 11.4 °C 1006.7 hPa North 3.5 km/h 7.2 km/h 98% 0.0 mm 0 W/m2
10:41 11.6 °C 11.3 °C 1006.7 hPa North 2.6 km/h 6.1 km/h 98% 0.0 mm 0 W/m2
10:46 11.5 °C 11.2 °C 1006.7 hPa North 1.1 km/h 7.2 km/h 98% 0.0 mm 0 W/m2
10:51 11.4 °C 11.1 °C 1006.7 hPa North 2.6 km/h 7.2 km/h 98% 0.0 mm 0 W/m2
10:56 11.4 °C 11.1 °C 1006.3 hPa North 1.1 km/h 6.1 km/h 98% 0.0 mm 0 W/m2
11:01 11.4 °C 11.1 °C 1006.3 hPa NNE 2.6 km/h 6.1 km/h 98% 0.0 mm 0 W/m2
11:06 11.5 °C 11.2 °C 1006.3 hPa North 3.5 km/h 7.2 km/h 98% 0.0 mm 0 W/m2
11:11 11.5 °C 11.2 °C 1006.3 hPa North 5.0 km/h 7.2 km/h 98% 0.0 mm 0 W/m2
11:16 11.6 °C 11.3 °C 1006.7 hPa NNW 2.6 km/h 7.2 km/h 98% 0.0 mm 0 W/m2
11:21 11.5 °C 11.2 °C 1006.7 hPa Calm   7.2 km/h 98% 0.0 mm 0 W/m2
11:26 11.4 °C 11.1 °C 1006.3 hPa SE 1.1 km/h 5.0 km/h 98% 0.0 mm 0 W/m2
11:31 11.3 °C 11.0 °C 1006.3 hPa Calm   3.5 km/h 98% 0.0 mm 0 W/m2
11:36 11.4 °C 11.1 °C 1006.3 hPa Calm   2.6 km/h 98% 0.0 mm 0 W/m2
11:41 11.4 °C 11.1 °C 1006.3 hPa NNW 1.1 km/h 2.6 km/h 98% 0.0 mm 0 W/m2
11:46 11.4 °C 11.1 °C 1006.0 hPa NW 2.6 km/h 3.5 km/h 98% 0.0 mm 0 W/m2
11:51 11.4 °C 11.1 °C 1006.0 hPa NW 1.1 km/h 3.5 km/h 98% 0.0 mm 0 W/m2
11:56 11.4 °C 11.1 °C 1006.0 hPa NW 2.6 km/h 5.0 km/h 98% 0.0 mm 0 W/m2
12:01 11.4 °C 11.1 °C 1006.0 hPa NW 2.6 km/h 5.0 km/h 98% 0.0 mm 0 W/m2
12:06 11.4 °C 11.1 °C 1006.0 hPa Calm   5.0 km/h 98% 0.0 mm 0 W/m2
12:11 11.4 °C 11.1 °C 1006.0 hPa NW 1.1 km/h 3.5 km/h 98% 0.0 mm 0 W/m2
12:16 11.5 °C 11.2 °C 1005.6 hPa NNW 2.6 km/h 5.0 km/h 98% 0.0 mm 0 W/m2
12:21 11.6 °C 11.3 °C 1005.6 hPa NW 3.5 km/h 5.0 km/h 98% 0.0 mm 0 W/m2
12:24 11.6 °C 11.3 °C 1005.6 hPa NW 3.5 km/h 6.1 km/h 98% 0.0 mm 0 W/m2
12:29 11.6 °C 11.3 °C 1005.6 hPa NW 2.6 km/h 6.1 km/h 98% 0.0 mm 0 W/m2
12:34 11.6 °C 11.3 °C 1005.6 hPa NW 3.5 km/h 6.1 km/h 98% 0.0 mm 0 W/m2
12:39 11.6 °C 11.3 °C 1005.6 hPa NW 3.5 km/h 6.1 km/h 98% 0.0 mm 0 W/m2
12:44 11.6 °C 11.3 °C 1005.6 hPa NW 3.5 km/h 6.1 km/h 98% 0.0 mm 0 W/m2
12:49 11.6 °C 11.3 °C 1005.6 hPa NW 2.6 km/h 6.1 km/h 98% 0.0 mm 0 W/m2
12:54 11.6 °C 11.3 °C 1005.6 hPa NW 3.5 km/h 5.0 km/h 98% 0.0 mm 0 W/m2
12:59 11.5 °C 11.2 °C 1005.3 hPa NNW 1.1 km/h 5.0 km/h 98% 0.0 mm 0 W/m2
13:05 11.5 °C 11.2 °C 1005.3 hPa NNW 2.6 km/h 5.0 km/h 98% 0.0 mm 0 W/m2
13:10 11.5 °C 11.2 °C 1005.3 hPa NNW 1.1 km/h 3.5 km/h 98% 0.0 mm 0 W/m2
13:15 11.5 °C 11.2 °C 1005.3 hPa NW 2.6 km/h 3.5 km/h 98% 0.0 mm 0 W/m2
13:20 11.5 °C 11.2 °C 1005.0 hPa NW 3.5 km/h 5.0 km/h 98% 0.0 mm 0 W/m2
13:25 11.5 °C 11.2 °C 1005.3 hPa NW 2.6 km/h 5.0 km/h 98% 0.0 mm 0 W/m2
13:30 11.5 °C 11.2 °C 1005.3 hPa NW 3.5 km/h 6.1 km/h 98% 0.0 mm 0 W/m2
13:35 11.5 °C 11.2 °C 1005.3 hPa NW 2.6 km/h 6.1 km/h 98% 0.0 mm 0 W/m2
13:40 11.5 °C 11.2 °C 1005.3 hPa NW 3.5 km/h 6.1 km/h 98% 0.0 mm 0 W/m2
13:45 11.5 °C 11.2 °C 1005.0 hPa NW 2.6 km/h 5.0 km/h 98% 0.0 mm 0 W/m2
13:50 11.5 °C 11.2 °C 1005.0 hPa NW 1.1 km/h 5.0 km/h 98% 0.0 mm 0 W/m2
13:55 11.5 °C 11.2 °C 1005.0 hPa NW 2.6 km/h 5.0 km/h 98% 0.0 mm 0 W/m2
14:12 11.4 °C 11.1 °C 1005.0 hPa Calm   5.0 km/h 98% 0.0 mm 0 W/m2
14:17 11.4 °C 11.1 °C 1005.0 hPa Calm   5.0 km/h 98% 0.0 mm 0 W/m2
14:22 11.4 °C 11.1 °C 1005.3 hPa NNE 1.1 km/h 2.6 km/h 98% 0.0 mm 0 W/m2
14:27 11.4 °C 11.1 °C 1005.0 hPa North 1.1 km/h 3.5 km/h 98% 0.0 mm 0 W/m2
14:32 11.4 °C 11.1 °C 1005.3 hPa NW 3.5 km/h 5.0 km/h 98% 0.0 mm 0 W/m2
14:37 11.4 °C 11.1 °C 1005.3 hPa NW 5.0 km/h 8.7 km/h 98% 0.0 mm 0 W/m2
14:42 11.4 °C 11.1 °C 1005.0 hPa NW 1.1 km/h 8.7 km/h 98% 0.0 mm 0 W/m2
14:47 11.5 °C 11.2 °C 1005.0 hPa NW 1.1 km/h 5.0 km/h 98% 0.0 mm 0 W/m2
14:52 11.5 °C 11.2 °C 1005.0 hPa NW 2.6 km/h 5.0 km/h 98% 0.0 mm 0 W/m2
14:57 11.4 °C 11.1 °C 1005.0 hPa NNW 1.1 km/h 5.0 km/h 98% 0.0 mm 0 W/m2
15:02 11.4 °C 11.1 °C 1005.0 hPa NW 1.1 km/h 5.0 km/h 98% 0.0 mm 0 W/m2
15:07 11.4 °C 11.1 °C 1005.0 hPa Calm   5.0 km/h 98% 0.0 mm 0 W/m2
15:12 11.4 °C 11.1 °C 1005.0 hPa Calm   2.6 km/h 98% 0.0 mm 0 W/m2
15:17 11.4 °C 11.1 °C 1005.0 hPa West 1.1 km/h 2.6 km/h 98% 0.0 mm 0 W/m2
15:22 11.4 °C 11.1 °C 1005.3 hPa WNW 1.1 km/h 2.6 km/h 98% 0.0 mm 0 W/m2
15:27 11.4 °C 11.1 °C 1005.3 hPa NNE 2.6 km/h 6.1 km/h 98% 0.0 mm 0 W/m2
15:32 11.4 °C 11.1 °C 1005.3 hPa Calm   6.1 km/h 98% 0.0 mm 0 W/m2
15:37 11.4 °C 11.1 °C 1005.3 hPa NNE 1.1 km/h 5.0 km/h 98% 0.0 mm 0 W/m2
15:42 11.4 °C 11.1 °C 1005.3 hPa Calm   3.5 km/h 98% 0.0 mm 1 W/m2
15:47 11.4 °C 11.1 °C 1005.3 hPa Calm   2.6 km/h 98% 0.0 mm 4 W/m2
15:52 11.4 °C 11.1 °C 1005.0 hPa Calm   1.1 km/h 98% 0.0 mm 7 W/m2
15:57 11.4 °C 11.1 °C 1005.0 hPa Calm   1.1 km/h 98% 0.0 mm 9 W/m2
16:02 11.4 °C 11.1 °C 1005.0 hPa North 1.1 km/h 3.5 km/h 98% 0.0 mm 8 W/m2
16:07 11.4 °C 11.1 °C 1005.0 hPa Calm   3.5 km/h 98% 0.0 mm 12 W/m2
16:12 11.5 °C 11.2 °C 1005.0 hPa Calm   3.5 km/h 98% 0.0 mm 18 W/m2
16:17 11.5 °C 11.2 °C 1005.0 hPa Calm   1.1 km/h 98% 0.0 mm 26 W/m2
16:22 11.6 °C 11.3 °C 1005.0 hPa NW 1.1 km/h 3.5 km/h 98% 0.0 mm 23 W/m2
16:27 11.7 °C 11.4 °C 1005.0 hPa NW 1.1 km/h 3.5 km/h 98% 0.0 mm 24 W/m2
16:32 11.7 °C 11.4 °C 1005.0 hPa NNW 2.6 km/h 3.5 km/h 98% 0.0 mm 23 W/m2
16:37 11.8 °C 11.5 °C 1005.0 hPa NNW 1.1 km/h 3.5 km/h 98% 0.0 mm 28 W/m2
16:42 11.8 °C 11.5 °C 1005.0 hPa NNW 1.1 km/h 3.5 km/h 98% 0.0 mm 32 W/m2
16:47 12.0 °C 11.6 °C 1005.0 hPa NNW 1.1 km/h 3.5 km/h 97% 0.0 mm 29 W/m2
16:52 12.0 °C 11.6 °C 1005.0 hPa North 1.1 km/h 3.5 km/h 97% 0.0 mm 24 W/m2
16:57 12.0 °C 11.6 °C 1004.6 hPa Calm   3.5 km/h 97% 0.0 mm 28 W/m2
17:02 12.0 °C 11.6 °C 1005.0 hPa NNW 2.6 km/h 3.5 km/h 97% 0.0 mm 33 W/m2
17:07 12.1 °C 11.7 °C 1004.6 hPa NNW 1.1 km/h 5.0 km/h 97% 0.3 mm 42 W/m2
17:12 12.1 °C 11.7 °C 1004.6 hPa NNW 1.1 km/h 5.0 km/h 97% 0.3 mm 49 W/m2
17:17 12.2 °C 11.7 °C 1004.6 hPa North 2.6 km/h 3.5 km/h 97% 0.3 mm 50 W/m2
17:22 12.2 °C 11.7 °C 1004.6 hPa NNW 2.6 km/h 3.5 km/h 97% 0.3 mm 46 W/m2
17:27 12.2 °C 11.7 °C 1004.6 hPa NW 1.1 km/h 3.5 km/h 97% 0.3 mm 47 W/m2
17:33 12.3 °C 11.8 °C 1004.6 hPa NNW 1.1 km/h 3.5 km/h 97% 0.3 mm 46 W/m2
17:38 12.4 °C 11.9 °C 1004.6 hPa NNW 1.1 km/h 3.5 km/h 97% 0.3 mm 39 W/m2
17:43 12.3 °C 11.8 °C 1004.6 hPa NNW 1.1 km/h 3.5 km/h 97% 0.3 mm 53 W/m2
17:48 12.4 °C 11.9 °C 1004.6 hPa NW 2.6 km/h 3.5 km/h 97% 0.3 mm 56 W/m2
17:53 12.4 °C 11.9 °C 1004.6 hPa NW 1.1 km/h 3.5 km/h 97% 0.3 mm 50 W/m2
17:58 12.5 °C 12.1 °C 1004.6 hPa NNW 1.1 km/h 3.5 km/h 97% 0.3 mm 53 W/m2
18:03 12.5 °C 12.1 °C 1004.6 hPa NNW 1.1 km/h 5.0 km/h 97% 0.3 mm 47 W/m2
18:08 12.5 °C 12.1 °C 1004.6 hPa NNW 3.5 km/h 5.0 km/h 97% 0.0 mm 42 W/m2
18:13 12.5 °C 12.1 °C 1004.6 hPa NNW 2.6 km/h 5.0 km/h 97% 0.0 mm 38 W/m2
18:18 12.5 °C 12.1 °C 1004.3 hPa Calm   5.0 km/h 97% 0.0 mm 35 W/m2
18:23 12.5 °C 12.1 °C 1004.3 hPa Calm   2.6 km/h 97% 0.0 mm 30 W/m2
18:28 12.6 °C 12.2 °C 1003.9 hPa Calm   2.6 km/h 97% 0.3 mm 37 W/m2
18:33 12.6 °C 12.2 °C 1004.3 hPa West 1.1 km/h 2.6 km/h 97% 0.3 mm 37 W/m2
18:38 12.6 °C 12.2 °C 1004.3 hPa NNW 1.1 km/h 3.5 km/h 97% 0.3 mm 35 W/m2
18:43 12.6 °C 12.2 °C 1004.3 hPa North 2.6 km/h 3.5 km/h 97% 0.3 mm 33 W/m2
18:48 12.5 °C 12.1 °C 1003.9 hPa NNW 1.1 km/h 3.5 km/h 97% 0.3 mm 35 W/m2
18:53 12.5 °C 12.1 °C 1003.9 hPa NW 1.1 km/h 5.0 km/h 97% 0.3 mm 32 W/m2
18:58 12.5 °C 12.1 °C 1003.9 hPa Calm   5.0 km/h 97% 0.5 mm 29 W/m2
19:03 12.6 °C 12.2 °C 1003.9 hPa Calm   3.5 km/h 97% 0.5 mm 26 W/m2
19:08 12.6 °C 12.2 °C 1003.6 hPa North 1.1 km/h 2.6 km/h 97% 1.0 mm 24 W/m2
19:13 12.6 °C 12.2 °C 1003.6 hPa Calm   2.6 km/h 97% 1.0 mm 21 W/m2
19:18 12.6 °C 12.2 °C 1003.3 hPa Calm   2.6 km/h 97% 1.3 mm 19 W/m2
19:23 12.5 °C 12.1 °C 1002.9 hPa Calm   1.1 km/h 97% 1.5 mm 22 W/m2
19:28 12.6 °C 12.2 °C 1002.9 hPa Calm   2.6 km/h 97% 1.3 mm 24 W/m2
19:33 12.5 °C 12.1 °C 1002.9 hPa Calm   2.6 km/h 97% 1.3 mm 22 W/m2
19:38 12.5 °C 12.1 °C 1002.9 hPa NW 2.6 km/h 5.0 km/h 97% 1.5 mm 21 W/m2
19:43 12.5 °C 12.1 °C 1002.9 hPa Calm   5.0 km/h 97% 1.5 mm 30 W/m2
19:48 12.6 °C 12.2 °C 1002.6 hPa Calm   3.5 km/h 97% 1.8 mm 36 W/m2
19:53 12.7 °C 12.2 °C 1002.6 hPa Calm   1.1 km/h 97% 1.8 mm 37 W/m2
19:58 12.8 °C 12.3 °C 1002.3 hPa SW 1.1 km/h 3.5 km/h 97% 1.5 mm 38 W/m2
20:03 12.8 °C 12.3 °C 1002.3 hPa SSW 1.1 km/h 3.5 km/h 97% 1.5 mm 33 W/m2
20:08 12.8 °C 12.3 °C 1002.3 hPa Calm   3.5 km/h 97% 1.5 mm 26 W/m2
20:13 12.7 °C 12.2 °C 1002.3 hPa NW 1.1 km/h 3.5 km/h 97% 1.5 mm 22 W/m2
20:18 12.7 °C 12.2 °C 1002.3 hPa NNW 2.6 km/h 3.5 km/h 97% 1.5 mm 19 W/m2
20:23 12.7 °C 12.2 °C 1002.3 hPa NNW 2.6 km/h 5.0 km/h 97% 1.3 mm 22 W/m2
20:28 12.7 °C 12.2 °C 1001.9 hPa NNW 6.1 km/h 8.7 km/h 97% 1.5 mm 21 W/m2
20:33 12.6 °C 12.2 °C 1002.3 hPa NNW 6.1 km/h 8.7 km/h 97% 1.5 mm 21 W/m2
20:38 12.6 °C 12.2 °C 1001.9 hPa NNW 9.7 km/h 12.2 km/h 97% 1.5 mm 22 W/m2
20:43 12.5 °C 12.1 °C 1001.9 hPa NNW 2.6 km/h 12.2 km/h 97% 1.8 mm 30 W/m2
20:48 12.5 °C 12.1 °C 1001.2 hPa NNW 11.1 km/h 12.2 km/h 97% 2.0 mm 25 W/m2
20:53 12.5 °C 12.1 °C 1001.2 hPa SSE 3.5 km/h 13.4 km/h 97% 2.8 mm 31 W/m2
20:58 12.5 °C 12.1 °C 1001.2 hPa SSE 3.5 km/h 13.4 km/h 97% 3.0 mm 22 W/m2
21:03 12.5 °C 12.1 °C 1001.2 hPa Calm   8.7 km/h 97% 3.0 mm 22 W/m2
21:08 12.5 °C 12.1 °C 1001.2 hPa Calm   6.1 km/h 97% 3.3 mm 21 W/m2
21:13 12.5 °C 12.1 °C 1000.9 hPa Calm   2.6 km/h 97% 3.6 mm 23 W/m2
21:18 12.5 °C 12.1 °C 1000.6 hPa Calm   2.6 km/h 97% 3.8 mm 20 W/m2
21:23 12.5 °C 12.1 °C 1000.9 hPa NE 1.1 km/h 2.6 km/h 97% 4.3 mm 16 W/m2
21:28 12.5 °C 12.1 °C 1000.6 hPa Calm   2.6 km/h 97% 4.6 mm 14 W/m2
21:33 12.5 °C 12.1 °C 1000.6 hPa Calm   2.6 km/h 97% 4.8 mm 22 W/m2
21:38 12.5 °C 12.1 °C 1000.6 hPa Calm   1.1 km/h 97% 4.8 mm 28 W/m2
21:43 12.5 °C 12.1 °C 1000.6 hPa NNE 2.6 km/h 2.6 km/h 97% 4.8 mm 27 W/m2
21:48 12.6 °C 12.2 °C 1000.6 hPa Calm   2.6 km/h 97% 4.3 mm 37 W/m2
21:53 12.7 °C 12.2 °C 1000.2 hPa Calm   2.6 km/h 97% 3.8 mm 45 W/m2
21:58 12.8 °C 12.3 °C 1000.2 hPa Calm   2.6 km/h 97% 3.6 mm 47 W/m2
22:03 12.8 °C 12.3 °C 1000.2 hPa Calm   1.1 km/h 97% 3.6 mm 62 W/m2
22:08 12.8 °C 12.3 °C 1000.2 hPa Calm   1.1 km/h 97% 3.0 mm 69 W/m2
22:13 12.8 °C 12.3 °C 1000.2 hPa Calm   1.1 km/h 97% 2.8 mm 76 W/m2
22:18 13.0 °C 12.8 °C 1000.2 hPa Calm     99% 2.3 mm 66 W/m2
22:23 13.0 °C 12.8 °C 1000.2 hPa Calm   2.6 km/h 99% 2.0 mm 74 W/m2
22:28 13.0 °C 12.8 °C 1000.2 hPa Calm   2.6 km/h 99% 1.5 mm 64 W/m2
22:33 13.0 °C 12.8 °C 1000.2 hPa Calm   2.6 km/h 99% 1.0 mm 36 W/m2
22:38 13.0 °C 12.8 °C 1000.2 hPa Calm   2.6 km/h 99% 0.5 mm 30 W/m2
22:43 13.0 °C 12.8 °C 999.9 hPa Calm   2.6 km/h 99% 0.3 mm 33 W/m2
22:48 13.0 °C 12.8 °C 999.9 hPa Calm   2.6 km/h 99% 0.3 mm 42 W/m2
22:53 13.0 °C 12.8 °C 999.9 hPa Calm   2.6 km/h 99% 0.3 mm 48 W/m2
22:58 13.1 °C 12.9 °C 999.5 hPa Calm   2.6 km/h 99% 0.0 mm 39 W/m2
23:03 13.1 °C 12.9 °C 999.5 hPa Calm   1.1 km/h 99% 0.0 mm 40 W/m2
23:08 13.1 °C 12.9 °C 999.5 hPa Calm   1.1 km/h 99% 0.0 mm 49 W/m2
23:13 13.1 °C 12.9 °C 999.5 hPa ESE 1.1 km/h 2.6 km/h 99% 0.0 mm 51 W/m2
23:18 13.0 °C 12.8 °C 999.5 hPa East 1.1 km/h 3.5 km/h 99% 0.0 mm 58 W/m2
23:23 13.0 °C 12.8 °C 999.5 hPa East 1.1 km/h 3.5 km/h 99% 0.0 mm 60 W/m2
23:28 13.0 °C 12.8 °C 999.5 hPa ENE 1.1 km/h 3.5 km/h 99% 0.0 mm 59 W/m2
23:33 13.2 °C 13.1 °C 999.5 hPa Calm   3.5 km/h 99% 0.0 mm 69 W/m2
23:39 13.3 °C 13.2 °C 999.5 hPa SSE 1.1 km/h 3.5 km/h 99% 0.0 mm 68 W/m2
23:44 13.3 °C 13.2 °C 999.2 hPa Calm   3.5 km/h 99% 0.0 mm 60 W/m2
23:49 13.3 °C 13.2 °C 999.2 hPa Calm   2.6 km/h 99% 0.0 mm 54 W/m2
23:54 13.2 °C 13.1 °C 999.2 hPa South 1.1 km/h 3.5 km/h 99% 0.0 mm 50 W/m2
23:59 13.2 °C 13.1 °C 998.9 hPa South 1.1 km/h 3.5 km/h 99% 0.0 mm 41 W/m2
Northern Hawkes Bay. New Zealand Historic Data
Compliments of Weather Underground - 2 mb